Little Dixie, Arkansas
Current Conditions -  °F | °C
As of 1:56 PM on Friday 21 Nov 2014 (Local Time) from KSRC Reporting Station
Light Rain Light Rain  
Wind Chill: 41°   Ceiling: 500
Heat Index: 45°   Visibility: 4mi
Dew Point: 43°   Wind: 8mph
Humidity: 93%   Direction: 70°ENE
Pressure: 30.29"   Gusts: NA
Location:  34.9712°N, 91.571°W
Report Text: KSRC 211956Z AUTO 07007KT 4SM -RA BR OVC005 07/06 A3029 RMK AO2 SLP263 P0001 T00720061 TSNO
Loading
Personal Weather Stations






























Interactive Weather Map New forecast layout! Learn more

10-Day Weather Forecast

Advertisements
Track Severe Weather on mobile